createdAt,value
2019-05-28T00:01:55.088Z,99.90
2019-05-28T00:04:25.348Z,99.90
2019-05-28T00:06:55.551Z,99.90
2019-05-28T00:09:26.050Z,99.90
2019-05-28T00:11:56.227Z,99.90
2019-05-28T00:14:26.485Z,99.90
2019-05-28T00:16:56.806Z,99.90
2019-05-28T00:19:26.959Z,99.90
2019-05-28T00:21:57.270Z,99.90
2019-05-28T00:24:27.433Z,99.90
2019-05-28T00:26:57.762Z,99.90
2019-05-28T00:29:27.962Z,99.90
2019-05-28T00:31:58.177Z,99.90
2019-05-28T00:34:28.272Z,99.90
2019-05-28T00:36:58.443Z,99.90
2019-05-28T00:39:28.733Z,99.90
2019-05-28T00:41:59.028Z,99.90
2019-05-28T00:44:29.534Z,99.90
2019-05-28T00:47:00.074Z,99.90
2019-05-28T00:49:31.275Z,99.90
2019-05-28T00:52:01.399Z,99.90
2019-05-28T00:54:31.638Z,99.90
2019-05-28T00:57:02.339Z,99.90
2019-05-28T00:59:33.191Z,99.90
2019-05-28T01:02:03.377Z,99.90
2019-05-28T01:04:33.630Z,99.90
2019-05-28T01:07:03.911Z,99.90
2019-05-28T01:09:34.102Z,99.90
2019-05-28T01:12:04.512Z,99.90
2019-05-28T01:14:34.732Z,99.90
2019-05-28T01:17:05.896Z,99.90
2019-05-28T01:19:36.236Z,99.90
2019-05-28T01:22:06.474Z,99.90
2019-05-28T01:24:36.683Z,99.90
2019-05-28T01:27:06.818Z,99.90
2019-05-28T01:29:36.979Z,99.90
2019-05-28T01:32:07.230Z,99.90
2019-05-28T01:34:37.458Z,99.90
2019-05-28T01:37:07.638Z,99.90
2019-05-28T01:39:37.894Z,99.90
2019-05-28T01:42:07.986Z,99.90
2019-05-28T01:44:38.103Z,99.90
2019-05-28T01:47:08.239Z,99.90
2019-05-28T01:49:38.325Z,99.90
2019-05-28T01:52:08.571Z,99.90
2019-05-28T01:54:38.830Z,99.90
2019-05-28T01:57:09.030Z,99.90
2019-05-28T01:59:39.275Z,99.90
2019-05-28T02:02:09.462Z,99.90
2019-05-28T02:04:39.631Z,99.90
2019-05-28T02:07:09.796Z,99.90
2019-05-28T02:09:39.895Z,99.90
2019-05-28T02:12:10.054Z,99.90
2019-05-28T02:14:40.310Z,99.90
2019-05-28T02:17:10.426Z,99.90
2019-05-28T02:19:40.574Z,99.90
2019-05-28T02:22:10.728Z,99.90
2019-05-28T02:24:41.326Z,99.90
2019-05-28T02:27:11.426Z,99.90
2019-05-28T02:29:41.532Z,99.90
2019-05-28T02:32:11.801Z,99.90
2019-05-28T02:34:41.878Z,99.90
2019-05-28T02:37:12.096Z,99.90
2019-05-28T02:39:42.391Z,99.90
2019-05-28T02:42:12.474Z,99.90
2019-05-28T02:44:42.602Z,99.90
2019-05-28T02:47:12.814Z,99.90
2019-05-28T02:49:43.046Z,99.90
2019-05-28T02:52:13.928Z,99.90
2019-05-28T02:54:44.149Z,99.90
2019-05-28T02:57:15.793Z,99.90
2019-05-28T02:59:48.924Z,99.90
2019-05-28T03:02:21.892Z,99.90
2019-05-28T03:04:55.591Z,99.90
2019-05-28T03:07:29.043Z,99.90
2019-05-28T03:10:02.472Z,99.90
2019-05-28T03:12:33.710Z,99.90
2019-05-28T03:15:04.410Z,99.90
2019-05-28T03:17:36.506Z,99.90
2019-05-28T03:20:07.062Z,99.90
2019-05-28T03:22:38.356Z,99.90
2019-05-28T03:25:09.133Z,99.90
2019-05-28T03:27:39.240Z,99.90
2019-05-28T03:30:10.485Z,99.90
2019-05-28T03:32:40.746Z,99.90
2019-05-28T03:35:10.886Z,99.90
2019-05-28T03:37:42.602Z,99.90
2019-05-28T03:40:14.170Z,99.90
2019-05-28T03:42:45.513Z,99.90
2019-05-28T03:45:15.674Z,99.90
2019-05-28T03:47:45.825Z,99.90
2019-05-28T03:50:15.981Z,99.90
2019-05-28T03:52:46.133Z,99.90
2019-05-28T03:55:16.271Z,99.90
2019-05-28T03:57:46.393Z,99.90
2019-05-28T04:00:16.552Z,99.90
2019-05-28T04:02:46.830Z,99.90
2019-05-28T04:05:16.967Z,99.90
2019-05-28T04:07:47.088Z,99.90
2019-05-28T04:10:17.232Z,99.90
2019-05-28T04:12:47.443Z,99.90
2019-05-28T04:15:17.523Z,99.90
2019-05-28T04:17:47.651Z,99.90
2019-05-28T04:20:18.956Z,99.90
2019-05-28T04:22:49.149Z,99.90
2019-05-28T04:25:19.362Z,99.90
2019-05-28T04:27:49.518Z,99.90
2019-05-28T04:30:19.754Z,99.90
2019-05-28T04:32:49.984Z,99.90
2019-05-28T04:35:20.152Z,99.90
2019-05-28T04:37:50.274Z,99.90
2019-05-28T04:40:20.339Z,99.90
2019-05-28T04:42:50.495Z,99.90
2019-05-28T04:45:20.627Z,99.90
2019-05-28T04:47:50.746Z,99.90
2019-05-28T04:50:21.024Z,99.90
2019-05-28T04:52:51.290Z,99.90
2019-05-28T04:55:21.467Z,99.90
2019-05-28T04:57:51.590Z,99.90
2019-05-28T05:00:22.007Z,99.90
2019-05-28T05:02:59.594Z,99.90
2019-05-28T05:05:24.363Z,99.90
2019-05-28T05:07:54.706Z,99.90
2019-05-28T05:10:26.147Z,99.90
2019-05-28T05:12:56.235Z,99.90
2019-05-28T05:15:26.342Z,99.90
2019-05-28T05:17:56.792Z,99.90
2019-05-28T05:20:26.940Z,99.90
2019-05-28T05:22:57.094Z,99.90
2019-05-28T05:25:27.285Z,99.90
2019-05-28T05:27:57.446Z,99.90
2019-05-28T05:30:27.526Z,99.90
2019-05-28T05:33:18.274Z,99.90
2019-05-28T05:35:29.689Z,99.90
2019-05-28T05:37:59.809Z,99.90
2019-05-28T05:40:30.047Z,99.90
2019-05-28T05:43:00.333Z,99.90
2019-05-28T05:45:30.470Z,99.90
2019-05-28T05:48:00.815Z,99.90
2019-05-28T05:50:31.115Z,99.90
2019-05-28T05:53:01.367Z,99.90
2019-05-28T05:55:31.627Z,99.90
2019-05-28T05:58:01.869Z,99.90
2019-05-28T06:00:32.141Z,99.90
2019-05-28T06:03:02.261Z,99.90
2019-05-28T06:05:32.559Z,99.90
2019-05-28T06:08:02.711Z,99.90
2019-05-28T06:10:33.037Z,99.90
2019-05-28T06:13:03.138Z,99.90
2019-05-28T06:15:33.198Z,99.90
2019-05-28T06:18:03.498Z,99.90
2019-05-28T06:20:33.821Z,99.90
2019-05-28T06:23:03.947Z,99.90
2019-05-28T06:25:34.196Z,99.90
2019-05-28T06:28:04.531Z,99.90
2019-05-28T06:30:34.877Z,99.90
2019-05-28T06:33:05.230Z,99.90
2019-05-28T06:35:35.394Z,99.90
2019-05-28T06:38:05.714Z,99.90
2019-05-28T06:40:35.922Z,99.90
2019-05-28T06:43:06.170Z,99.90
2019-05-28T06:45:36.251Z,99.90
2019-05-28T06:48:06.454Z,99.90
2019-05-28T06:50:36.523Z,99.90
2019-05-28T06:53:06.854Z,99.90
2019-05-28T06:55:36.998Z,99.90
2019-05-28T06:58:07.178Z,99.90
2019-05-28T07:00:37.522Z,99.90
2019-05-28T07:03:07.906Z,99.90
2019-05-28T07:05:38.188Z,99.90
2019-05-28T07:08:09.523Z,99.90
2019-05-28T07:10:56.538Z,99.90
2019-05-28T07:13:11.803Z,99.90
2019-05-28T07:15:42.043Z,99.90
2019-05-28T07:18:12.261Z,99.90
2019-05-28T07:20:42.502Z,99.90
2019-05-28T07:23:12.542Z,99.90
2019-05-28T07:25:42.638Z,99.90
2019-05-28T07:28:12.834Z,99.90
2019-05-28T07:30:43.037Z,99.90
2019-05-28T07:33:13.298Z,99.90
2019-05-28T07:35:46.223Z,99.90
2019-05-28T07:38:15.171Z,99.90
2019-05-28T07:40:45.280Z,99.90
2019-05-28T07:43:15.557Z,99.90
2019-05-28T07:45:45.752Z,99.90
2019-05-28T07:48:16.079Z,99.90
2019-05-28T07:50:46.193Z,99.90
2019-05-28T07:53:16.449Z,99.90
2019-05-28T07:55:46.587Z,99.90
2019-05-28T07:58:16.869Z,99.90
2019-05-28T08:00:47.110Z,99.90
2019-05-28T08:03:17.679Z,99.90
2019-05-28T08:05:48.806Z,99.90
2019-05-28T08:08:20.829Z,99.90
2019-05-28T08:10:50.886Z,99.90
2019-05-28T08:13:21.114Z,99.90
2019-05-28T08:15:51.318Z,99.90
2019-05-28T08:18:21.680Z,99.90
2019-05-28T08:20:51.825Z,99.90
2019-05-28T08:23:22.043Z,99.90
2019-05-28T08:25:52.266Z,99.90
2019-05-28T08:28:22.346Z,99.90
2019-05-28T08:30:53.667Z,99.90
2019-05-28T08:33:23.755Z,99.90
2019-05-28T08:35:53.935Z,99.90
2019-05-28T08:38:23.989Z,99.90
2019-05-28T08:40:54.343Z,99.90
2019-05-28T08:43:24.834Z,99.90
2019-05-28T08:45:55.028Z,99.90
2019-05-28T08:48:25.206Z,99.90
2019-05-28T08:50:55.292Z,99.90
2019-05-28T08:53:25.708Z,99.90
2019-05-28T08:55:55.798Z,99.90
2019-05-28T08:58:26.026Z,99.90
2019-05-28T09:00:56.162Z,99.90
2019-05-28T09:03:26.226Z,99.90
2019-05-28T09:05:57.576Z,99.90
2019-05-28T09:08:38.652Z,99.90
2019-05-28T09:10:59.686Z,99.90
2019-05-28T09:13:30.023Z,99.90
2019-05-28T09:16:00.331Z,99.90
2019-05-28T09:18:30.514Z,99.90
2019-05-28T09:21:00.801Z,99.90
2019-05-28T09:23:30.933Z,99.90
2019-05-28T09:26:01.060Z,99.90
2019-05-28T09:28:31.547Z,99.90
2019-05-28T09:31:01.759Z,99.90
2019-05-28T09:33:32.061Z,99.40
2019-05-28T09:36:08.679Z,99.90
2019-05-28T09:38:35.146Z,99.90
2019-05-28T09:41:06.184Z,99.90
2019-05-28T09:43:36.509Z,99.90
2019-05-28T09:46:06.711Z,99.80
2019-05-28T09:48:36.926Z,99.90
2019-05-28T09:51:07.273Z,99.90
2019-05-28T09:53:37.482Z,99.90
2019-05-28T09:56:07.694Z,99.90
2019-05-28T09:58:37.886Z,99.90
2019-05-28T10:01:08.370Z,99.90
2019-05-28T10:03:38.656Z,99.90
2019-05-28T10:06:16.835Z,99.90
2019-05-28T10:08:40.794Z,99.90
2019-05-28T10:11:10.894Z,98.90
2019-05-28T10:13:42.011Z,99.20
2019-05-28T10:16:12.474Z,97.20
2019-05-28T10:18:42.597Z,97.80
2019-05-28T10:21:18.184Z,94.30
2019-05-28T10:23:44.670Z,93.50
2019-05-28T10:26:15.962Z,93.80
2019-05-28T10:28:50.155Z,92.90
2019-05-28T10:31:18.377Z,92.10
2019-05-28T10:33:48.551Z,92.90
2019-05-28T10:36:34.421Z,90.50
2019-05-28T10:38:50.860Z,88.30
2019-05-28T10:41:20.914Z,86.10
2019-05-28T10:43:51.105Z,83.20
2019-05-28T10:46:21.358Z,85.10
2019-05-28T10:48:51.502Z,81.10
2019-05-28T10:51:21.603Z,83.50
2019-05-28T10:53:51.750Z,84.30
2019-05-28T10:56:22.010Z,87.60
2019-05-28T10:58:52.414Z,90.00
2019-05-28T11:01:22.588Z,89.00
2019-05-28T11:03:52.684Z,91.00
2019-05-28T11:06:22.871Z,88.30
2019-05-28T11:08:53.128Z,89.10
2019-05-28T11:11:23.292Z,91.20
2019-05-28T11:13:53.828Z,90.70
2019-05-28T11:16:24.074Z,90.60
2019-05-28T11:18:55.218Z,91.50
2019-05-28T11:21:25.482Z,91.10
2019-05-28T11:23:55.703Z,90.30
2019-05-28T11:26:26.162Z,90.50
2019-05-28T11:28:56.220Z,91.10
2019-05-28T11:31:26.315Z,92.30
2019-05-28T11:33:56.458Z,93.40
2019-05-28T11:36:26.591Z,92.90
2019-05-28T11:38:56.803Z,93.80
2019-05-28T11:41:41.491Z,95.40
2019-05-28T11:43:58.928Z,97.90
2019-05-28T11:46:29.040Z,99.90
2019-05-28T11:48:59.334Z,99.90
2019-05-28T11:51:29.422Z,99.90
2019-05-28T11:54:00.342Z,99.90
2019-05-28T11:56:30.574Z,99.90
2019-05-28T11:59:00.747Z,99.90
2019-05-28T12:01:34.935Z,99.90
2019-05-28T12:04:02.786Z,99.90
2019-05-28T12:06:38.213Z,99.90
2019-05-28T12:09:07.162Z,99.90
2019-05-28T12:11:37.371Z,99.90
2019-05-28T12:14:07.703Z,99.90
2019-05-28T12:16:37.863Z,99.90
2019-05-28T12:19:07.987Z,99.90
2019-05-28T12:21:38.111Z,99.90
2019-05-28T12:24:08.367Z,99.90
2019-05-28T12:26:38.478Z,99.90
2019-05-28T12:29:11.798Z,99.90
2019-05-28T12:31:42.917Z,99.90
2019-05-28T12:34:13.103Z,99.90
2019-05-28T12:36:43.266Z,99.90
2019-05-28T12:39:13.366Z,99.90
2019-05-28T12:41:43.554Z,99.90
2019-05-28T12:44:16.818Z,99.90
2019-05-28T12:46:45.379Z,99.90
2019-05-28T12:49:15.570Z,99.90
2019-05-28T12:51:45.764Z,99.90
2019-05-28T12:54:15.861Z,99.90
2019-05-28T12:56:45.994Z,99.90
2019-05-28T12:59:16.086Z,99.90
2019-05-28T13:01:46.195Z,99.90
2019-05-28T13:04:16.401Z,99.90
2019-05-28T13:06:46.695Z,99.90
2019-05-28T13:09:17.086Z,99.90
2019-05-28T13:11:47.249Z,99.90
2019-05-28T13:14:17.290Z,99.90
2019-05-28T13:16:47.461Z,99.90
2019-05-28T13:19:17.619Z,99.90
2019-05-28T13:21:47.944Z,99.90
2019-05-28T13:24:18.090Z,99.90
2019-05-28T13:26:49.282Z,99.90
2019-05-28T13:29:31.374Z,99.90
2019-05-28T13:32:01.510Z,99.90
2019-05-28T13:34:31.549Z,99.90
2019-05-28T13:37:01.812Z,99.90
2019-05-28T13:39:31.997Z,99.90
2019-05-28T13:42:02.298Z,99.90
2019-05-28T13:44:32.505Z,99.90
2019-05-28T13:47:02.691Z,99.90
2019-05-28T13:49:32.956Z,99.90
2019-05-28T13:52:12.014Z,99.90
2019-05-28T13:54:34.807Z,99.90
2019-05-28T13:57:04.985Z,99.90
2019-05-28T13:59:35.151Z,99.90
2019-05-28T14:02:05.455Z,99.90
2019-05-28T14:04:35.599Z,99.90
2019-05-28T14:07:05.730Z,99.90
2019-05-28T14:09:35.854Z,99.90
2019-05-28T14:12:06.038Z,99.90
2019-05-28T14:14:36.151Z,99.90
2019-05-28T14:17:06.210Z,99.90
2019-05-28T14:19:36.434Z,99.90
2019-05-28T14:22:06.846Z,99.90
2019-05-28T14:24:37.039Z,99.90
2019-05-28T14:27:07.141Z,99.90
2019-05-28T14:29:37.292Z,99.90
2019-05-28T14:32:07.450Z,99.90
2019-05-28T14:34:37.704Z,99.90
2019-05-28T14:37:07.782Z,99.90
2019-05-28T14:39:41.097Z,99.90
2019-05-28T14:42:09.746Z,99.90
2019-05-28T14:44:43.166Z,99.90
2019-05-28T14:47:11.646Z,99.90
2019-05-28T14:49:41.795Z,99.90
2019-05-28T14:52:11.962Z,99.90
2019-05-28T14:54:42.151Z,99.90
2019-05-28T14:57:12.363Z,99.90
2019-05-28T14:59:42.501Z,99.90
2019-05-28T15:02:12.652Z,99.90
2019-05-28T15:04:42.978Z,99.90
2019-05-28T15:07:13.140Z,99.90
2019-05-28T15:09:43.339Z,99.90
2019-05-28T15:12:13.582Z,99.90
2019-05-28T15:14:43.784Z,99.90
2019-05-28T15:17:16.971Z,99.90
2019-05-28T15:19:47.170Z,99.90
2019-05-28T15:22:17.374Z,99.90
2019-05-28T15:24:49.820Z,99.90
2019-05-28T15:27:19.670Z,99.90
2019-05-28T15:29:49.855Z,99.90
2019-05-28T15:32:19.975Z,99.90
2019-05-28T15:34:50.134Z,99.90
2019-05-28T15:37:20.382Z,99.90
2019-05-28T15:39:50.607Z,99.90
2019-05-28T15:42:20.933Z,99.90
2019-05-28T15:44:51.334Z,99.90
2019-05-28T15:47:21.567Z,99.90
2019-05-28T15:49:52.015Z,99.90
2019-05-28T15:52:22.198Z,99.90
2019-05-28T15:54:52.311Z,99.90
2019-05-28T15:57:22.667Z,99.90
2019-05-28T15:59:53.908Z,99.90
2019-05-28T16:02:24.026Z,99.90
2019-05-28T16:04:54.331Z,99.90
2019-05-28T16:07:24.456Z,99.90
2019-05-28T16:09:56.422Z,99.90
2019-05-28T16:12:26.510Z,99.90
2019-05-28T16:14:56.615Z,99.90
2019-05-28T16:17:26.934Z,99.90
2019-05-28T16:19:57.208Z,99.90
2019-05-28T16:22:27.636Z,99.90
2019-05-28T16:24:57.766Z,99.90
2019-05-28T16:27:27.968Z,99.90
2019-05-28T16:30:00.402Z,99.90
2019-05-28T16:32:30.478Z,99.90
2019-05-28T16:35:00.594Z,99.90
2019-05-28T16:37:30.768Z,99.90
2019-05-28T16:40:13.958Z,99.90
2019-05-28T16:42:32.826Z,99.90
2019-05-28T16:45:02.978Z,99.90
2019-05-28T16:47:33.114Z,99.90
2019-05-28T16:50:03.358Z,99.90
2019-05-28T16:52:33.642Z,99.90
2019-05-28T16:55:03.841Z,99.90
2019-05-28T16:57:34.022Z,99.90
2019-05-28T17:00:05.485Z,99.90
2019-05-28T17:02:36.882Z,99.90
2019-05-28T17:05:08.185Z,99.90
2019-05-28T17:07:39.334Z,99.90
2019-05-28T17:10:09.551Z,99.90
2019-05-28T17:12:39.939Z,99.90
2019-05-28T17:15:10.439Z,99.90
2019-05-28T17:17:40.705Z,99.90
2019-05-28T17:20:13.855Z,99.90
2019-05-28T17:22:44.145Z,99.90
2019-05-28T17:25:14.878Z,99.90
2019-05-28T17:27:45.196Z,99.90
2019-05-28T17:30:19.380Z,99.90
2019-05-28T17:32:47.559Z,99.90
2019-05-28T17:35:18.080Z,99.90
2019-05-28T17:37:48.283Z,99.90
2019-05-28T17:40:21.965Z,99.90
2019-05-28T17:42:50.460Z,99.90
2019-05-28T17:45:20.675Z,99.90
2019-05-28T17:47:50.836Z,99.90
2019-05-28T17:50:21.186Z,99.90
2019-05-28T17:52:51.983Z,99.90
2019-05-28T17:55:23.478Z,99.90
2019-05-28T17:57:53.630Z,99.90
2019-05-28T18:00:24.994Z,99.90
2019-05-28T18:02:55.230Z,99.90
2019-05-28T18:05:25.415Z,99.90
2019-05-28T18:07:55.697Z,99.90
2019-05-28T18:10:25.903Z,99.90
2019-05-28T18:12:56.219Z,99.90
2019-05-28T18:15:26.415Z,99.90
2019-05-28T18:17:56.648Z,99.90
2019-05-28T18:20:26.889Z,99.90
2019-05-28T18:22:57.066Z,99.90
2019-05-28T18:25:27.438Z,99.90
2019-05-28T18:27:57.567Z,99.90
2019-05-28T18:30:27.863Z,99.90
2019-05-28T18:32:58.085Z,99.90
2019-05-28T18:35:28.238Z,99.90
2019-05-28T18:38:05.582Z,99.90
2019-05-28T18:40:30.975Z,99.90
2019-05-28T18:43:01.321Z,99.90
2019-05-28T18:45:32.293Z,99.90
2019-05-28T18:48:02.544Z,99.90
2019-05-28T18:50:32.779Z,99.90
2019-05-28T18:53:03.068Z,99.90
2019-05-28T18:55:33.207Z,99.90
2019-05-28T18:58:03.454Z,99.90
2019-05-28T19:00:34.183Z,99.90
2019-05-28T19:03:04.759Z,99.90
2019-05-28T19:05:35.251Z,99.90
2019-05-28T19:08:05.583Z,99.90
2019-05-28T19:10:35.887Z,99.90
2019-05-28T19:13:06.090Z,99.90
2019-05-28T19:15:36.255Z,99.90
2019-05-28T19:18:06.342Z,99.90
2019-05-28T19:20:36.660Z,99.90
2019-05-28T19:23:06.831Z,99.90
2019-05-28T19:25:37.069Z,99.90
2019-05-28T19:28:07.239Z,99.90
2019-05-28T19:30:37.602Z,99.90
2019-05-28T19:33:07.822Z,99.90
2019-05-28T19:35:38.068Z,99.90
2019-05-28T19:38:08.242Z,99.90
2019-05-28T19:40:39.795Z,99.90
2019-05-28T19:43:09.970Z,99.90
2019-05-28T19:45:40.074Z,99.90
2019-05-28T19:48:10.323Z,99.90
2019-05-28T19:50:40.611Z,99.90
2019-05-28T19:53:12.083Z,99.90
2019-05-28T19:55:42.741Z,99.90
2019-05-28T19:58:13.517Z,99.90
2019-05-28T20:00:43.813Z,99.90
2019-05-28T20:03:14.194Z,99.90
2019-05-28T20:05:44.395Z,99.90
2019-05-28T20:08:14.636Z,99.90
2019-05-28T20:10:44.779Z,99.90
2019-05-28T20:13:14.854Z,99.90
2019-05-28T20:15:45.026Z,99.90
2019-05-28T20:18:26.385Z,99.90
2019-05-28T20:20:47.554Z,99.90
2019-05-28T20:23:17.958Z,99.90
2019-05-28T20:25:51.492Z,99.90
2019-05-28T20:28:21.287Z,99.90
2019-05-28T20:30:52.605Z,99.90
2019-05-28T20:33:22.790Z,99.90
2019-05-28T20:35:56.768Z,99.90
2019-05-28T20:38:26.950Z,99.90
2019-05-28T20:40:57.242Z,99.90
2019-05-28T20:43:27.421Z,99.90
2019-05-28T20:45:57.673Z,99.90
2019-05-28T20:48:28.037Z,99.90
2019-05-28T20:51:07.326Z,99.90
2019-05-28T20:53:35.932Z,99.90
2019-05-28T20:56:01.843Z,99.90
2019-05-28T20:58:40.337Z,99.90
2019-05-28T21:01:03.974Z,99.90
2019-05-28T21:03:34.206Z,99.90
2019-05-28T21:06:05.986Z,99.90
2019-05-28T21:08:36.179Z,99.90
2019-05-28T21:11:06.407Z,99.90
2019-05-28T21:13:36.579Z,99.90
2019-05-28T21:16:06.694Z,99.90
2019-05-28T21:18:37.131Z,99.90
2019-05-28T21:21:07.417Z,99.90
2019-05-28T21:23:37.687Z,99.90
2019-05-28T21:26:07.908Z,99.90
2019-05-28T21:28:38.019Z,99.90
2019-05-28T21:31:09.175Z,99.90
2019-05-28T21:33:39.502Z,99.90
2019-05-28T21:36:10.842Z,99.90
2019-05-28T21:38:40.993Z,99.90
2019-05-28T21:41:11.238Z,99.90
2019-05-28T21:43:41.447Z,99.90
2019-05-28T21:46:11.585Z,99.90
2019-05-28T21:48:41.674Z,99.90
2019-05-28T21:51:11.786Z,99.90
2019-05-28T21:53:41.914Z,99.90
2019-05-28T21:56:12.055Z,99.90
2019-05-28T21:58:42.213Z,99.90
2019-05-28T22:01:16.927Z,99.90
2019-05-28T22:03:47.284Z,99.90
2019-05-28T22:06:17.589Z,99.90
2019-05-28T22:08:47.648Z,99.90
2019-05-28T22:11:17.758Z,99.90
2019-05-28T22:13:47.969Z,99.90
2019-05-28T22:16:18.034Z,99.90
2019-05-28T22:18:48.140Z,99.90
2019-05-28T22:21:18.254Z,99.90
2019-05-28T22:23:48.467Z,99.90
2019-05-28T22:26:18.761Z,99.90
2019-05-28T22:28:49.027Z,99.90
2019-05-28T22:31:19.230Z,99.90
2019-05-28T22:33:49.473Z,99.90
2019-05-28T22:36:19.814Z,99.90
2019-05-28T22:39:09.223Z,99.90
2019-05-28T22:41:41.434Z,99.90
2019-05-28T22:44:11.708Z,99.90
2019-05-28T22:46:41.907Z,99.90
2019-05-28T22:49:12.053Z,99.90
2019-05-28T22:51:42.273Z,99.90
2019-05-28T22:54:13.593Z,99.90
2019-05-28T22:56:44.071Z,99.90
2019-05-28T22:59:14.237Z,99.90
2019-05-28T23:01:44.382Z,99.90
2019-05-28T23:04:14.554Z,99.90
2019-05-28T23:06:44.650Z,99.90
2019-05-28T23:09:14.792Z,99.90
2019-05-28T23:11:44.909Z,99.90
2019-05-28T23:14:14.969Z,99.90
2019-05-28T23:16:45.233Z,99.90
2019-05-28T23:19:15.419Z,99.90
2019-05-28T23:21:45.686Z,99.90
2019-05-28T23:24:15.951Z,99.90
2019-05-28T23:26:47.258Z,99.90
2019-05-28T23:29:18.482Z,99.90
2019-05-28T23:31:48.771Z,99.90
2019-05-28T23:34:18.854Z,99.90
2019-05-28T23:36:49.052Z,99.90
2019-05-28T23:39:19.370Z,99.90
2019-05-28T23:41:49.495Z,99.90
2019-05-28T23:44:19.697Z,99.90
2019-05-28T23:46:49.802Z,99.90
2019-05-28T23:49:24.023Z,99.90
2019-05-28T23:51:54.219Z,99.90
2019-05-28T23:54:24.365Z,99.90
2019-05-28T23:56:54.732Z,99.90
2019-05-28T23:59:24.783Z,99.90
